Time,TemperatureF,DewpointF,PressureIn,WindDirection,WindDirectionDegrees,WindSpeedMPH,WindSpeedGustMPH,Humidity,HourlyPrecipIn,Conditions,Clouds,dailyrainin,SoftwareType,DateUTC
2013-01-30 00:00:00,71.3,64.1,30.10,North,0,0.0,0.0,78,0.00,,,0.00,WUHU216HW,2013-01-30 05:00:00,
2013-01-30 00:01:00,71.3,64.1,30.10,North,0,0.0,0.0,78,0.00,,,0.00,WUHU216HW,2013-01-30 05:01:00,
2013-01-30 00:03:00,71.3,64.1,30.10,North,0,0.0,0.0,78,0.00,,,0.00,WUHU216HW,2013-01-30 05:03:00,
2013-01-30 00:08:00,71.3,64.5,30.10,North,0,0.0,0.0,79,0.00,,,0.00,WUHU216HW,2013-01-30 05:08:00,
2013-01-30 00:13:00,71.3,64.5,30.09,North,0,0.0,0.0,79,0.00,,,0.00,WUHU216HW,2013-01-30 05:13:00,
2013-01-30 00:18:00,71.1,64.3,30.09,North,0,0.0,0.0,79,0.00,,,0.00,WUHU216HW,2013-01-30 05:18:00,
2013-01-30 00:23:00,71.1,64.3,30.09,North,0,0.0,0.0,79,0.00,,,0.00,WUHU216HW,2013-01-30 05:23:00,
2013-01-30 00:28:00,71.3,64.5,30.09,North,0,0.0,0.0,79,0.00,,,0.00,WUHU216HW,2013-01-30 05:28:00,
2013-01-30 00:33:00,71.1,64.3,30.09,North,0,0.0,0.0,79,0.00,,,0.00,WUHU216HW,2013-01-30 05:33:00,
2013-01-30 00:38:00,71.1,64.3,30.09,North,0,0.0,0.0,79,0.00,,,0.00,WUHU216HW,2013-01-30 05:38:00,
2013-01-30 00:43:00,70.9,64.1,30.09,North,0,0.0,0.0,79,0.00,,,0.00,WUHU216HW,2013-01-30 05:43:00,
2013-01-30 00:48:00,70.9,64.1,30.09,North,0,0.0,0.0,79,0.00,,,0.00,WUHU216HW,2013-01-30 05:48:00,
2013-01-30 00:53:00,70.9,64.1,30.09,North,0,0.0,0.0,79,0.00,,,0.00,WUHU216HW,2013-01-30 05:53:00,
2013-01-30 00:58:00,70.9,64.4,30.09,North,0,0.0,0.0,80,0.00,,,0.00,WUHU216HW,2013-01-30 05:58:00,
2013-01-30 01:03:00,70.7,64.3,30.08,North,0,0.0,0.0,80,0.00,,,0.00,WUHU216HW,2013-01-30 06:03:00,
2013-01-30 01:08:00,70.7,64.3,30.08,North,0,0.0,0.0,80,0.00,,,0.00,WUHU216HW,2013-01-30 06:08:00,
2013-01-30 01:13:00,70.7,64.3,30.08,North,0,0.0,0.0,80,0.00,,,0.00,WUHU216HW,2013-01-30 06:13:00,
2013-01-30 01:18:00,70.7,64.3,30.08,North,0,0.0,0.0,80,0.00,,,0.00,WUHU216HW,2013-01-30 06:18:00,
2013-01-30 01:23:00,70.6,64.1,30.08,North,0,0.0,0.0,80,0.00,,,0.00,WUHU216HW,2013-01-30 06:23:00,
2013-01-30 01:28:00,70.6,64.1,30.08,North,0,0.0,0.0,80,0.00,,,0.00,WUHU216HW,2013-01-30 06:28:00,
2013-01-30 01:33:00,70.6,64.1,30.08,North,0,0.0,0.0,80,0.00,,,0.00,WUHU216HW,2013-01-30 06:33:00,
2013-01-30 01:38:00,70.4,63.9,30.08,North,0,0.0,0.0,80,0.00,,,0.00,WUHU216HW,2013-01-30 06:38:00,
2013-01-30 01:43:00,70.4,63.9,30.08,North,0,0.0,0.0,80,0.00,,,0.00,WUHU216HW,2013-01-30 06:43:00,
2013-01-30 01:48:00,70.2,63.7,30.08,North,0,0.0,0.0,80,0.00,,,0.00,WUHU216HW,2013-01-30 06:48:00,
2013-01-30 01:53:00,70.2,64.1,30.08,North,0,0.0,0.0,81,0.00,,,0.00,WUHU216HW,2013-01-30 06:53:00,
2013-01-30 01:58:00,70.2,64.1,30.07,North,0,0.0,0.0,81,0.00,,,0.00,WUHU216HW,2013-01-30 06:58:00,
2013-01-30 02:03:00,70.2,64.1,30.07,North,0,0.0,0.0,81,0.00,,,0.00,WUHU216HW,2013-01-30 07:03:00,
2013-01-30 02:08:00,70.0,63.9,30.07,North,0,0.0,0.0,81,0.00,,,0.00,WUHU216HW,2013-01-30 07:08:00,
2013-01-30 02:13:00,70.0,63.9,30.07,North,0,0.0,0.0,81,0.00,,,0.00,WUHU216HW,2013-01-30 07:13:00,
2013-01-30 02:18:00,69.8,63.7,30.07,North,0,0.0,0.0,81,0.00,,,0.00,WUHU216HW,2013-01-30 07:18:00,
2013-01-30 02:23:00,69.8,63.7,30.07,North,0,0.0,0.0,81,0.00,,,0.00,WUHU216HW,2013-01-30 07:23:00,
2013-01-30 02:28:00,69.7,63.9,30.07,North,0,0.0,0.0,82,0.00,,,0.00,WUHU216HW,2013-01-30 07:28:00,
2013-01-30 02:33:00,69.7,63.9,30.07,North,0,0.0,0.0,82,0.00,,,0.00,WUHU216HW,2013-01-30 07:33:00,
2013-01-30 02:38:00,69.5,63.7,30.07,North,0,0.0,0.0,82,0.00,,,0.00,WUHU216HW,2013-01-30 07:38:00,
2013-01-30 02:43:00,69.5,63.7,30.07,North,0,0.0,0.0,82,0.00,,,0.00,WUHU216HW,2013-01-30 07:43:00,
2013-01-30 02:48:00,69.5,63.7,30.07,North,0,0.0,0.0,82,0.00,,,0.00,WUHU216HW,2013-01-30 07:48:00,
2013-01-30 02:53:00,69.5,63.7,30.07,North,0,0.0,0.0,82,0.00,,,0.00,WUHU216HW,2013-01-30 07:53:00,
2013-01-30 02:58:00,69.3,63.5,30.07,North,0,0.0,0.0,82,0.00,,,0.00,WUHU216HW,2013-01-30 07:58:00,
2013-01-30 03:03:00,69.3,63.5,30.07,North,0,0.0,0.0,82,0.00,,,0.00,WUHU216HW,2013-01-30 08:03:00,
2013-01-30 03:08:00,69.3,63.5,30.06,North,0,0.0,0.0,82,0.00,,,0.00,WUHU216HW,2013-01-30 08:08:00,
2013-01-30 03:13:00,69.1,63.4,30.06,North,0,0.0,0.0,82,0.00,,,0.00,WUHU216HW,2013-01-30 08:13:00,
2013-01-30 03:18:00,68.9,63.2,30.06,North,0,0.0,0.0,82,0.00,,,0.00,WUHU216HW,2013-01-30 08:18:00,
2013-01-30 03:23:00,68.9,63.2,30.05,North,0,0.0,0.0,82,0.00,,,0.00,WUHU216HW,2013-01-30 08:23:00,
2013-01-30 03:28:00,68.8,63.1,30.05,North,0,0.0,0.0,82,0.00,,,0.00,WUHU216HW,2013-01-30 08:28:00,
2013-01-30 03:33:00,68.8,63.4,30.05,North,0,0.0,0.0,83,0.00,,,0.00,WUHU216HW,2013-01-30 08:33:00,
2013-01-30 03:38:00,68.8,63.4,30.05,North,0,0.0,0.0,83,0.00,,,0.00,WUHU216HW,2013-01-30 08:38:00,
2013-01-30 03:43:00,68.6,63.2,30.04,North,0,0.0,0.0,83,0.00,,,0.00,WUHU216HW,2013-01-30 08:43:00,
2013-01-30 03:48:00,68.6,63.2,30.04,North,0,0.0,0.0,83,0.00,,,0.00,WUHU216HW,2013-01-30 08:48:00,
2013-01-30 03:53:00,68.6,63.2,30.04,North,0,0.0,0.0,83,0.00,,,0.00,WUHU216HW,2013-01-30 08:53:00,
2013-01-30 03:58:00,68.4,63.4,30.04,North,0,0.0,0.0,84,0.00,,,0.00,WUHU216HW,2013-01-30 08:58:00,
2013-01-30 04:03:00,68.4,63.4,30.04,North,0,0.0,0.0,84,0.00,,,0.00,WUHU216HW,2013-01-30 09:03:00,
2013-01-30 04:08:00,68.4,63.4,30.04,North,0,0.0,0.0,84,0.00,,,0.00,WUHU216HW,2013-01-30 09:08:00,
2013-01-30 04:13:00,68.4,63.4,30.04,North,0,0.0,0.0,84,0.00,,,0.00,WUHU216HW,2013-01-30 09:13:00,
2013-01-30 04:18:00,68.2,63.2,30.04,North,0,0.0,0.0,84,0.00,,,0.00,WUHU216HW,2013-01-30 09:18:00,
2013-01-30 04:23:00,68.2,63.2,30.04,North,0,0.0,0.0,84,0.00,,,0.00,WUHU216HW,2013-01-30 09:23:00,
2013-01-30 04:28:00,68.2,63.2,30.04,North,0,0.0,0.0,84,0.00,,,0.00,WUHU216HW,2013-01-30 09:28:00,
2013-01-30 04:33:00,68.0,63.0,30.04,North,0,0.0,0.0,84,0.00,,,0.00,WUHU216HW,2013-01-30 09:33:00,
2013-01-30 04:38:00,68.0,63.0,30.04,North,0,0.0,0.0,84,0.00,,,0.00,WUHU216HW,2013-01-30 09:38:00,
2013-01-30 04:43:00,68.0,63.0,30.04,North,0,0.0,0.0,84,0.00,,,0.00,WUHU216HW,2013-01-30 09:43:00,
2013-01-30 04:48:00,67.9,62.8,30.04,North,0,0.0,0.0,84,0.00,,,0.00,WUHU216HW,2013-01-30 09:48:00,
2013-01-30 04:53:00,67.9,62.8,30.04,North,0,0.0,0.0,84,0.00,,,0.00,WUHU216HW,2013-01-30 09:53:00,
2013-01-30 04:58:00,67.7,62.6,30.04,North,0,0.0,0.0,84,0.00,,,0.00,WUHU216HW,2013-01-30 09:58:00,
2013-01-30 05:03:00,67.7,62.6,30.04,North,0,0.0,0.0,84,0.00,,,0.00,WUHU216HW,2013-01-30 10:03:00,
2013-01-30 05:08:00,67.7,62.6,30.04,North,0,0.0,0.0,84,0.00,,,0.00,WUHU216HW,2013-01-30 10:08:00,
2013-01-30 05:13:00,67.5,62.5,30.04,North,0,0.0,0.0,84,0.00,,,0.00,WUHU216HW,2013-01-30 10:13:00,
2013-01-30 05:18:00,67.5,62.5,30.04,North,0,0.0,0.0,84,0.00,,,0.00,WUHU216HW,2013-01-30 10:18:00,
2013-01-30 05:23:00,67.3,62.3,30.04,North,0,0.0,0.0,84,0.00,,,0.00,WUHU216HW,2013-01-30 10:23:00,
2013-01-30 05:28:00,67.3,62.6,30.04,North,0,0.0,0.0,85,0.00,,,0.00,WUHU216HW,2013-01-30 10:28:00,
2013-01-30 05:33:00,67.1,62.5,30.03,North,0,0.0,0.0,85,0.00,,,0.00,WUHU216HW,2013-01-30 10:33:00,
2013-01-30 05:38:00,67.1,62.5,30.03,North,0,0.0,0.0,85,0.00,,,0.00,WUHU216HW,2013-01-30 10:38:00,
2013-01-30 05:43:00,67.0,62.3,30.03,North,0,0.0,0.0,85,0.00,,,0.00,WUHU216HW,2013-01-30 10:43:00,
2013-01-30 05:48:00,67.0,62.3,30.04,North,0,0.0,0.0,85,0.00,,,0.00,WUHU216HW,2013-01-30 10:48:00,
2013-01-30 05:53:00,66.8,62.5,30.03,North,0,0.0,0.0,86,0.00,,,0.00,WUHU216HW,2013-01-30 10:53:00,
2013-01-30 05:58:00,66.8,62.5,30.03,North,0,0.0,0.0,86,0.00,,,0.00,WUHU216HW,2013-01-30 10:58:00,
2013-01-30 06:03:00,66.8,62.5,30.03,North,0,0.0,0.0,86,0.00,,,0.00,WUHU216HW,2013-01-30 11:03:00,
2013-01-30 06:08:00,66.8,62.5,30.03,North,0,0.0,0.0,86,0.00,,,0.00,WUHU216HW,2013-01-30 11:08:00,
2013-01-30 06:13:00,66.8,62.5,30.03,North,0,0.0,0.0,86,0.00,,,0.00,WUHU216HW,2013-01-30 11:13:00,
2013-01-30 06:18:00,66.8,62.5,30.03,North,0,0.0,0.0,86,0.00,,,0.00,WUHU216HW,2013-01-30 11:18:00,
2013-01-30 06:23:00,66.8,62.5,30.03,North,0,0.0,0.0,86,0.00,,,0.00,WUHU216HW,2013-01-30 11:23:00,
2013-01-30 06:28:00,66.6,62.3,30.03,North,0,0.0,0.0,86,0.00,,,0.00,WUHU216HW,2013-01-30 11:28:00,
2013-01-30 06:33:00,66.6,62.3,30.03,North,0,0.0,0.0,86,0.00,,,0.00,WUHU216HW,2013-01-30 11:33:00,
2013-01-30 06:38:00,66.6,62.3,30.03,North,0,0.0,0.0,86,0.00,,,0.00,WUHU216HW,2013-01-30 11:38:00,
2013-01-30 06:43:00,66.6,62.6,30.03,North,0,0.0,0.0,87,0.00,,,0.00,WUHU216HW,2013-01-30 11:43:00,
2013-01-30 06:48:00,66.6,62.6,30.03,North,0,0.0,0.0,87,0.00,,,0.00,WUHU216HW,2013-01-30 11:48:00,
2013-01-30 06:53:00,66.6,62.6,30.03,North,0,0.0,0.0,87,0.00,,,0.00,WUHU216HW,2013-01-30 11:53:00,
2013-01-30 06:58:00,66.6,62.6,30.03,North,0,0.0,0.0,87,0.00,,,0.00,WUHU216HW,2013-01-30 11:58:00,
2013-01-30 07:03:00,66.4,62.4,30.03,North,0,0.0,0.0,87,0.00,,,0.00,WUHU216HW,2013-01-30 12:03:00,
2013-01-30 07:08:00,66.4,62.4,30.03,North,0,0.0,0.0,87,0.00,,,0.00,WUHU216HW,2013-01-30 12:08:00,
2013-01-30 07:13:00,66.4,62.4,30.02,North,0,0.0,0.0,87,0.00,,,0.00,WUHU216HW,2013-01-30 12:13:00,
2013-01-30 07:18:00,66.4,62.4,30.03,North,0,0.0,0.0,87,0.00,,,0.00,WUHU216HW,2013-01-30 12:18:00,
2013-01-30 07:23:00,66.4,62.4,30.03,North,0,0.0,0.0,87,0.00,,,0.00,WUHU216HW,2013-01-30 12:23:00,
2013-01-30 07:28:00,66.4,62.4,30.03,North,0,0.0,0.0,87,0.00,,,0.00,WUHU216HW,2013-01-30 12:28:00,
2013-01-30 07:33:00,66.4,62.4,30.03,North,0,0.0,0.0,87,0.00,,,0.00,WUHU216HW,2013-01-30 12:33:00,
2013-01-30 07:38:00,66.4,62.4,30.03,North,0,0.0,0.0,87,0.00,,,0.00,WUHU216HW,2013-01-30 12:38:00,
2013-01-30 07:43:00,66.4,62.4,30.03,North,0,0.0,0.0,87,0.00,,,0.00,WUHU216HW,2013-01-30 12:43:00,
2013-01-30 07:48:00,66.6,62.6,30.03,North,0,0.0,0.0,87,0.00,,,0.00,WUHU216HW,2013-01-30 12:48:00,
2013-01-30 07:53:00,66.6,62.6,30.03,North,0,0.0,0.0,87,0.00,,,0.00,WUHU216HW,2013-01-30 12:53:00,
2013-01-30 07:58:00,66.6,62.6,30.02,North,0,0.0,0.0,87,0.00,,,0.00,WUHU216HW,2013-01-30 12:58:00,
2013-01-30 08:03:00,66.6,62.6,30.02,North,0,0.0,0.0,87,0.00,,,0.00,WUHU216HW,2013-01-30 13:03:00,
2013-01-30 08:08:00,66.8,62.7,30.02,North,0,0.0,0.0,87,0.00,,,0.00,WUHU216HW,2013-01-30 13:08:00,
2013-01-30 08:13:00,67.0,62.9,30.03,North,0,0.0,0.0,87,0.00,,,0.00,WUHU216HW,2013-01-30 13:13:00,
2013-01-30 08:18:00,67.0,62.9,30.03,North,0,0.0,0.0,87,0.00,,,0.00,WUHU216HW,2013-01-30 13:18:00,
2013-01-30 08:23:00,67.1,63.1,30.03,North,0,0.0,0.0,87,0.00,,,0.00,WUHU216HW,2013-01-30 13:23:00,
2013-01-30 08:28:00,67.3,63.3,30.03,North,0,0.0,0.0,87,0.00,,,0.00,WUHU216HW,2013-01-30 13:28:00,
2013-01-30 08:33:00,67.3,63.0,30.02,North,0,0.0,0.0,86,0.00,,,0.00,WUHU216HW,2013-01-30 13:33:00,
2013-01-30 08:38:00,67.5,63.2,30.02,North,0,0.0,0.0,86,0.00,,,0.00,WUHU216HW,2013-01-30 13:38:00,
2013-01-30 08:43:00,67.7,63.4,30.02,North,0,0.0,0.0,86,0.00,,,0.00,WUHU216HW,2013-01-30 13:43:00,
2013-01-30 08:48:00,67.9,63.6,30.01,North,0,0.0,0.0,86,0.00,,,0.00,WUHU216HW,2013-01-30 13:48:00,
2013-01-30 08:53:00,68.0,63.7,30.01,North,0,0.0,0.0,86,0.00,,,0.00,WUHU216HW,2013-01-30 13:53:00,
2013-01-30 08:58:00,68.2,63.9,30.01,North,0,0.0,0.0,86,0.00,,,0.00,WUHU216HW,2013-01-30 13:58:00,
2013-01-30 09:03:00,68.4,63.7,30.01,North,0,0.0,0.0,85,0.00,,,0.00,WUHU216HW,2013-01-30 14:03:00,
2013-01-30 09:08:00,68.6,63.9,30.01,North,0,0.0,0.0,85,0.00,,,0.00,WUHU216HW,2013-01-30 14:08:00,
2013-01-30 09:13:00,68.8,64.1,30.01,North,0,0.0,0.0,85,0.00,,,0.00,WUHU216HW,2013-01-30 14:13:00,
2013-01-30 09:18:00,68.9,63.9,30.01,North,0,0.0,0.0,84,0.00,,,0.00,WUHU216HW,2013-01-30 14:18:00,
2013-01-30 09:23:00,69.1,64.1,30.01,North,0,0.0,0.0,84,0.00,,,0.00,WUHU216HW,2013-01-30 14:23:00,
2013-01-30 09:28:00,69.3,64.3,30.01,North,0,0.0,0.0,84,0.00,,,0.00,WUHU216HW,2013-01-30 14:28:00,
2013-01-30 09:33:00,69.5,64.4,30.01,North,0,0.0,0.0,84,0.00,,,0.00,WUHU216HW,2013-01-30 14:33:00,
2013-01-30 09:38:00,69.7,64.3,30.00,North,0,0.0,0.0,83,0.00,,,0.00,WUHU216HW,2013-01-30 14:38:00,
2013-01-30 09:43:00,70.0,64.5,30.00,North,0,0.0,0.0,83,0.00,,,0.00,WUHU216HW,2013-01-30 14:43:00,
2013-01-30 09:48:00,70.2,64.7,30.00,North,0,0.0,0.0,83,0.00,,,0.00,WUHU216HW,2013-01-30 14:48:00,
2013-01-30 09:53:00,70.4,64.6,30.00,North,0,0.0,0.0,82,0.00,,,0.00,WUHU216HW,2013-01-30 14:53:00,
2013-01-30 09:58:00,70.6,64.8,30.01,North,0,0.0,0.0,82,0.00,,,0.00,WUHU216HW,2013-01-30 14:58:00,
2013-01-30 10:03:00,70.7,65.0,30.00,North,0,0.0,0.0,82,0.00,,,0.00,WUHU216HW,2013-01-30 15:03:00,
2013-01-30 10:08:00,70.9,64.8,30.00,North,0,0.0,0.0,81,0.00,,,0.00,WUHU216HW,2013-01-30 15:08:00,
2013-01-30 10:13:00,71.1,65.0,30.00,North,0,0.0,0.0,81,0.00,,,0.00,WUHU216HW,2013-01-30 15:13:00,
2013-01-30 10:18:00,71.3,64.8,29.99,North,0,0.0,0.0,80,0.00,,,0.00,WUHU216HW,2013-01-30 15:18:00,
2013-01-30 10:23:00,71.6,65.2,29.99,North,0,0.0,0.0,80,0.00,,,0.00,WUHU216HW,2013-01-30 15:23:00,
2013-01-30 10:28:00,71.6,65.2,29.99,North,0,0.0,0.0,80,0.00,,,0.00,WUHU216HW,2013-01-30 15:28:00,
2013-01-30 10:33:00,72.0,65.2,29.99,North,0,0.0,0.0,79,0.00,,,0.00,WUHU216HW,2013-01-30 15:33:00,
2013-01-30 10:38:00,72.2,65.4,29.99,North,0,0.0,0.0,79,0.00,,,0.00,WUHU216HW,2013-01-30 15:38:00,
2013-01-30 10:43:00,72.5,65.7,29.99,North,0,0.0,0.0,79,0.00,,,0.00,WUHU216HW,2013-01-30 15:43:00,
2013-01-30 10:48:00,72.7,65.9,29.98,North,0,0.0,0.0,79,0.00,,,0.00,WUHU216HW,2013-01-30 15:48:00,
2013-01-30 10:53:00,72.9,65.7,29.98,North,0,0.0,0.0,78,0.00,,,0.00,WUHU216HW,2013-01-30 15:53:00,
2013-01-30 10:58:00,73.3,66.1,29.98,North,0,0.0,0.0,78,0.00,,,0.00,WUHU216HW,2013-01-30 15:58:00,
2013-01-30 11:03:00,73.6,66.4,29.98,North,0,0.0,0.0,78,0.00,,,0.00,WUHU216HW,2013-01-30 16:03:00,
2013-01-30 11:08:00,74.2,66.5,29.99,North,0,0.0,0.0,77,0.00,,,0.00,WUHU216HW,2013-01-30 16:08:00,
2013-01-30 11:13:00,74.5,66.9,29.98,North,0,0.0,0.0,77,0.00,,,0.00,WUHU216HW,2013-01-30 16:13:00,
2013-01-30 11:18:00,74.9,66.9,29.98,North,0,0.0,0.0,76,0.00,,,0.00,WUHU216HW,2013-01-30 16:18:00,
2013-01-30 11:23:00,75.4,67.3,29.98,North,0,0.0,0.0,76,0.00,,,0.00,WUHU216HW,2013-01-30 16:23:00,
2013-01-30 11:28:00,76.3,67.8,29.98,North,0,0.0,0.0,75,0.00,,,0.00,WUHU216HW,2013-01-30 16:28:00,
2013-01-30 11:33:00,77.8,68.8,29.97,North,0,0.0,0.0,74,0.00,,,0.00,WUHU216HW,2013-01-30 16:33:00,
2013-01-30 11:38:00,80.3,70.5,29.97,North,0,0.0,0.0,72,0.00,,,0.00,WUHU216HW,2013-01-30 16:38:00,
2013-01-30 11:43:00,83.0,71.7,29.96,North,0,0.0,0.0,69,0.00,,,0.00,WUHU216HW,2013-01-30 16:43:00,
2013-01-30 11:48:00,84.8,72.2,29.96,North,0,0.0,0.0,66,0.00,,,0.00,WUHU216HW,2013-01-30 16:48:00,
2013-01-30 11:53:00,87.1,72.1,29.96,North,0,0.0,0.0,61,0.00,,,0.00,WUHU216HW,2013-01-30 16:53:00,
2013-01-30 11:58:00,89.8,72.6,29.96,North,0,0.0,0.0,57,0.00,,,0.00,WUHU216HW,2013-01-30 16:58:00,
2013-01-30 12:03:00,91.8,72.7,29.96,North,0,0.0,0.0,54,0.00,,,0.00,WUHU216HW,2013-01-30 17:03:00,
2013-01-30 12:08:00,93.1,72.2,29.95,North,0,0.0,0.0,51,0.00,,,0.00,WUHU216HW,2013-01-30 17:08:00,
2013-01-30 12:13:00,93.1,71.6,29.95,North,0,0.0,0.0,50,0.00,,,0.00,WUHU216HW,2013-01-30 17:13:00,
2013-01-30 12:18:00,93.1,71.6,29.95,North,0,0.0,0.0,50,0.00,,,0.00,WUHU216HW,2013-01-30 17:18:00,
2013-01-30 12:23:00,94.7,71.9,29.95,North,0,0.0,0.0,48,0.00,,,0.00,WUHU216HW,2013-01-30 17:23:00,
2013-01-30 12:28:00,96.1,72.6,29.95,North,0,0.0,0.0,47,0.00,,,0.00,WUHU216HW,2013-01-30 17:28:00,
2013-01-30 12:33:00,97.4,71.7,29.95,North,0,0.0,0.0,44,0.00,,,0.00,WUHU216HW,2013-01-30 17:33:00,
2013-01-30 12:38:00,97.9,71.6,29.95,North,0,0.0,0.0,43,0.00,,,0.00,WUHU216HW,2013-01-30 17:38:00,
2013-01-30 12:43:00,98.3,71.2,29.95,North,0,0.0,0.0,42,0.00,,,0.00,WUHU216HW,2013-01-30 17:43:00,
2013-01-30 12:48:00,98.6,70.8,29.95,North,0,0.0,0.0,41,0.00,,,0.00,WUHU216HW,2013-01-30 17:48:00,
2013-01-30 12:53:00,97.6,69.9,29.95,North,0,0.0,0.0,41,0.00,,,0.00,WUHU216HW,2013-01-30 17:53:00,
2013-01-30 12:58:00,96.7,69.8,29.95,North,0,0.0,0.0,42,0.00,,,0.00,WUHU216HW,2013-01-30 17:58:00,
2013-01-30 13:03:00,95.8,68.9,29.94,North,0,0.0,0.0,42,0.00,,,0.00,WUHU216HW,2013-01-30 18:03:00,
2013-01-30 13:08:00,93.6,67.6,29.93,North,0,0.0,0.0,43,0.00,,,0.00,WUHU216HW,2013-01-30 18:08:00,
2013-01-30 13:13:00,90.7,66.3,29.92,North,0,0.0,0.0,45,0.00,,,0.00,WUHU216HW,2013-01-30 18:13:00,
2013-01-30 13:18:00,88.9,66.0,29.92,North,0,0.0,0.0,47,0.00,,,0.00,WUHU216HW,2013-01-30 18:18:00,
2013-01-30 13:23:00,87.5,65.3,29.92,North,0,0.0,0.0,48,0.00,,,0.00,WUHU216HW,2013-01-30 18:23:00,
2013-01-30 13:28:00,86.4,65.1,29.92,North,0,0.0,0.0,49,0.00,,,0.00,WUHU216HW,2013-01-30 18:28:00,
2013-01-30 13:33:00,85.7,65.0,29.92,North,0,0.0,0.0,50,0.00,,,0.00,WUHU216HW,2013-01-30 18:33:00,
2013-01-30 13:38:00,85.3,65.3,29.92,North,0,0.0,0.0,51,0.00,,,0.00,WUHU216HW,2013-01-30 18:38:00,
2013-01-30 13:43:00,85.0,64.9,29.92,North,0,0.0,0.0,51,0.00,,,0.00,WUHU216HW,2013-01-30 18:43:00,
2013-01-30 13:48:00,84.6,65.1,29.92,North,0,0.0,0.0,52,0.00,,,0.00,WUHU216HW,2013-01-30 18:48:00,
2013-01-30 13:53:00,84.1,64.1,29.91,North,0,0.0,0.0,51,0.00,,,0.00,WUHU216HW,2013-01-30 18:53:00,
2013-01-30 13:58:00,83.7,64.3,29.92,North,0,0.0,0.0,52,0.00,,,0.00,WUHU216HW,2013-01-30 18:58:00,
2013-01-30 14:03:00,83.5,64.1,29.91,North,0,0.0,0.0,52,0.00,,,0.00,WUHU216HW,2013-01-30 19:03:00,
2013-01-30 14:08:00,83.3,63.9,29.92,North,0,0.0,0.0,52,0.00,,,0.00,WUHU216HW,2013-01-30 19:08:00,
2013-01-30 14:13:00,83.2,64.2,29.91,North,0,0.0,0.0,53,0.00,,,0.00,WUHU216HW,2013-01-30 19:13:00,
2013-01-30 14:18:00,83.0,64.0,29.91,North,0,0.0,0.0,53,0.00,,,0.00,WUHU216HW,2013-01-30 19:18:00,
2013-01-30 14:23:00,83.0,64.0,29.91,North,0,0.0,0.0,53,0.00,,,0.00,WUHU216HW,2013-01-30 19:23:00,
2013-01-30 14:28:00,82.8,63.8,29.91,North,0,0.0,0.0,53,0.00,,,0.00,WUHU216HW,2013-01-30 19:28:00,
2013-01-30 14:33:00,82.6,63.6,29.90,North,0,0.0,0.0,53,0.00,,,0.00,WUHU216HW,2013-01-30 19:33:00,
2013-01-30 14:38:00,82.6,64.2,29.90,North,0,0.0,0.0,54,0.00,,,0.00,WUHU216HW,2013-01-30 19:38:00,
2013-01-30 14:43:00,82.4,64.0,29.90,North,0,0.0,0.0,54,0.00,,,0.00,WUHU216HW,2013-01-30 19:43:00,
2013-01-30 14:48:00,82.4,64.0,29.90,North,0,0.0,0.0,54,0.00,,,0.00,WUHU216HW,2013-01-30 19:48:00,
2013-01-30 14:53:00,82.4,64.0,29.89,North,0,0.0,0.0,54,0.00,,,0.00,WUHU216HW,2013-01-30 19:53:00,
2013-01-30 14:58:00,82.4,64.0,29.89,North,0,0.0,0.0,54,0.00,,,0.00,WUHU216HW,2013-01-30 19:58:00,
2013-01-30 15:03:00,82.3,63.8,29.89,North,0,0.0,0.0,54,0.00,,,0.00,WUHU216HW,2013-01-30 20:03:00,
2013-01-30 15:08:00,82.3,63.8,29.89,North,0,0.0,0.0,54,0.00,,,0.00,WUHU216HW,2013-01-30 20:08:00,
2013-01-30 15:13:00,82.3,63.8,29.89,North,0,0.0,0.0,54,0.00,,,0.00,WUHU216HW,2013-01-30 20:13:00,
2013-01-30 15:18:00,82.1,63.7,29.89,North,0,0.0,0.0,54,0.00,,,0.00,WUHU216HW,2013-01-30 20:18:00,
2013-01-30 15:23:00,82.1,63.7,29.89,North,0,0.0,0.0,54,0.00,,,0.00,WUHU216HW,2013-01-30 20:23:00,
2013-01-30 15:28:00,82.1,63.7,29.88,North,0,0.0,0.0,54,0.00,,,0.00,WUHU216HW,2013-01-30 20:28:00,
2013-01-30 15:33:00,82.1,63.7,29.89,North,0,0.0,0.0,54,0.00,,,0.00,WUHU216HW,2013-01-30 20:33:00,
2013-01-30 15:38:00,81.9,63.6,29.89,North,0,0.0,0.0,54,0.00,,,0.00,WUHU216HW,2013-01-30 20:38:00,
2013-01-30 15:43:00,81.9,63.6,29.89,North,0,0.0,0.0,54,0.00,,,0.00,WUHU216HW,2013-01-30 20:43:00,
2013-01-30 15:48:00,81.9,63.6,29.89,North,0,0.0,0.0,54,0.00,,,0.00,WUHU216HW,2013-01-30 20:48:00,
2013-01-30 15:53:00,82.1,63.7,29.88,North,0,0.0,0.0,54,0.00,,,0.00,WUHU216HW,2013-01-30 20:53:00,
2013-01-30 15:58:00,81.9,63.6,29.88,North,0,0.0,0.0,54,0.00,,,0.00,WUHU216HW,2013-01-30 20:58:00,
2013-01-30 16:03:00,81.7,63.4,29.88,North,0,0.0,0.0,54,0.00,,,0.00,WUHU216HW,2013-01-30 21:03:00,
2013-01-30 16:08:00,81.7,63.4,29.87,North,0,0.0,0.0,54,0.00,,,0.00,WUHU216HW,2013-01-30 21:08:00,
2013-01-30 16:13:00,81.5,62.6,29.88,North,0,0.0,0.0,53,0.00,,,0.00,WUHU216HW,2013-01-30 21:13:00,
2013-01-30 16:18:00,81.5,63.2,29.88,North,0,0.0,0.0,54,0.00,,,0.00,WUHU216HW,2013-01-30 21:18:00,
2013-01-30 16:23:00,81.5,63.2,29.89,North,0,0.0,0.0,54,0.00,,,0.00,WUHU216HW,2013-01-30 21:23:00,
2013-01-30 16:28:00,81.5,63.2,29.88,North,0,0.0,0.0,54,0.00,,,0.00,WUHU216HW,2013-01-30 21:28:00,
2013-01-30 16:33:00,81.4,63.0,29.88,North,0,0.0,0.0,54,0.00,,,0.00,WUHU216HW,2013-01-30 21:33:00,
2013-01-30 16:38:00,81.4,63.0,29.87,North,0,0.0,0.0,54,0.00,,,0.00,WUHU216HW,2013-01-30 21:38:00,
2013-01-30 16:43:00,81.4,63.0,29.87,North,0,0.0,0.0,54,0.00,,,0.00,WUHU216HW,2013-01-30 21:43:00,
2013-01-30 16:48:00,81.4,63.0,29.87,North,0,0.0,0.0,54,0.00,,,0.00,WUHU216HW,2013-01-30 21:48:00,
2013-01-30 16:53:00,81.2,62.9,29.87,North,0,0.0,0.0,54,0.00,,,0.00,WUHU216HW,2013-01-30 21:53:00,
2013-01-30 16:58:00,81.2,62.9,29.87,North,0,0.0,0.0,54,0.00,,,0.00,WUHU216HW,2013-01-30 21:58:00,
2013-01-30 17:03:00,81.0,62.7,29.87,North,0,0.0,0.0,54,0.00,,,0.00,WUHU216HW,2013-01-30 22:03:00,
2013-01-30 17:08:00,81.0,62.7,29.87,North,0,0.0,0.0,54,0.00,,,0.00,WUHU216HW,2013-01-30 22:08:00,
2013-01-30 17:13:00,81.0,62.7,29.87,North,0,0.0,0.0,54,0.00,,,0.00,WUHU216HW,2013-01-30 22:13:00,
2013-01-30 17:18:00,80.8,62.6,29.87,North,0,0.0,0.0,54,0.00,,,0.00,WUHU216HW,2013-01-30 22:18:00,
2013-01-30 17:23:00,80.8,62.6,29.87,North,0,0.0,0.0,54,0.00,,,0.00,WUHU216HW,2013-01-30 22:23:00,
2013-01-30 17:28:00,80.6,62.9,29.87,North,0,0.0,0.0,55,0.00,,,0.00,WUHU216HW,2013-01-30 22:28:00,
2013-01-30 17:33:00,80.6,62.9,29.87,North,0,0.0,0.0,55,0.00,,,0.00,WUHU216HW,2013-01-30 22:33:00,
2013-01-30 17:38:00,80.5,62.7,29.88,North,0,0.0,0.0,55,0.00,,,0.00,WUHU216HW,2013-01-30 22:38:00,
2013-01-30 17:43:00,80.3,62.6,29.87,North,0,0.0,0.0,55,0.00,,,0.00,WUHU216HW,2013-01-30 22:43:00,
2013-01-30 17:48:00,80.1,62.5,29.87,North,0,0.0,0.0,55,0.00,,,0.00,WUHU216HW,2013-01-30 22:48:00,
2013-01-30 17:53:00,79.9,62.8,29.87,North,0,0.0,0.0,56,0.00,,,0.00,WUHU216HW,2013-01-30 22:53:00,
2013-01-30 17:58:00,79.7,62.7,29.87,North,0,0.0,0.0,56,0.00,,,0.00,WUHU216HW,2013-01-30 22:58:00,
2013-01-30 18:03:00,79.6,63.0,29.87,North,0,0.0,0.0,57,0.00,,,0.00,WUHU216HW,2013-01-30 23:03:00,
2013-01-30 18:08:00,79.6,63.0,29.86,North,0,0.0,0.0,57,0.00,,,0.00,WUHU216HW,2013-01-30 23:08:00,
2013-01-30 18:13:00,79.2,62.6,29.86,North,0,0.0,0.0,57,0.00,,,0.00,WUHU216HW,2013-01-30 23:13:00,
2013-01-30 18:18:00,79.2,62.6,29.86,North,0,0.0,0.0,57,0.00,,,0.00,WUHU216HW,2013-01-30 23:18:00,
2013-01-30 18:23:00,79.0,63.0,29.86,North,0,0.0,0.0,58,0.00,,,0.00,WUHU216HW,2013-01-30 23:23:00,
2013-01-30 18:28:00,78.8,62.8,29.86,North,0,0.0,0.0,58,0.00,,,0.00,WUHU216HW,2013-01-30 23:28:00,
2013-01-30 18:33:00,78.7,63.2,29.87,North,0,0.0,0.0,59,0.00,,,0.00,WUHU216HW,2013-01-30 23:33:00,
2013-01-30 18:38:00,78.5,63.0,29.87,North,0,0.0,0.0,59,0.00,,,0.00,WUHU216HW,2013-01-30 23:38:00,
2013-01-30 18:43:00,78.3,62.8,29.87,North,0,0.0,0.0,59,0.00,,,0.00,WUHU216HW,2013-01-30 23:43:00,
2013-01-30 18:48:00,78.1,62.6,29.87,North,0,0.0,0.0,59,0.00,,,0.00,WUHU216HW,2013-01-30 23:48:00,
2013-01-30 18:53:00,77.9,62.5,29.87,North,0,0.0,0.0,59,0.00,,,0.00,WUHU216HW,2013-01-30 23:53:00,
2013-01-30 18:58:00,77.8,62.3,29.87,North,0,0.0,0.0,59,0.00,,,0.00,WUHU216HW,2013-01-30 23:58:00,
2013-01-30 19:03:00,77.6,62.6,29.87,North,0,0.0,0.0,60,0.00,,,0.00,WUHU216HW,2013-01-31 00:03:00,
2013-01-30 19:08:00,77.4,62.5,29.87,North,0,0.0,0.0,60,0.00,,,0.00,WUHU216HW,2013-01-31 00:08:00,
2013-01-30 19:13:00,77.4,62.5,29.88,North,0,0.0,0.0,60,0.00,,,0.00,WUHU216HW,2013-01-31 00:13:00,
2013-01-30 19:18:00,77.0,62.1,29.88,North,0,0.0,0.0,60,0.00,,,0.00,WUHU216HW,2013-01-31 00:18:00,
2013-01-30 19:23:00,76.9,61.9,29.88,North,0,0.0,0.0,60,0.00,,,0.00,WUHU216HW,2013-01-31 00:23:00,
2013-01-30 19:28:00,76.7,61.3,29.88,North,0,0.0,0.0,59,0.00,,,0.00,WUHU216HW,2013-01-31 00:28:00,
2013-01-30 19:33:00,76.5,61.1,29.88,North,0,0.0,0.0,59,0.00,,,0.00,WUHU216HW,2013-01-31 00:33:00,
2013-01-30 19:38:00,76.3,60.9,29.88,North,0,0.0,0.0,59,0.00,,,0.00,WUHU216HW,2013-01-31 00:38:00,
2013-01-30 19:43:00,76.1,60.8,29.88,North,0,0.0,0.0,59,0.00,,,0.00,WUHU216HW,2013-01-31 00:43:00,
2013-01-30 19:48:00,76.0,61.1,29.87,North,0,0.0,0.0,60,0.00,,,0.00,WUHU216HW,2013-01-31 00:48:00,
2013-01-30 19:53:00,75.8,60.9,29.87,North,0,0.0,0.0,60,0.00,,,0.00,WUHU216HW,2013-01-31 00:53:00,
2013-01-30 19:58:00,75.6,61.2,29.88,North,0,0.0,0.0,61,0.00,,,0.00,WUHU216HW,2013-01-31 00:58:00,
2013-01-30 20:03:00,75.4,61.1,29.87,North,0,0.0,0.0,61,0.00,,,0.00,WUHU216HW,2013-01-31 01:03:00,
2013-01-30 20:08:00,75.2,61.4,29.88,North,0,0.0,0.0,62,0.00,,,0.00,WUHU216HW,2013-01-31 01:08:00,
2013-01-30 20:13:00,75.2,61.7,29.88,North,0,0.0,0.0,63,0.00,,,0.00,WUHU216HW,2013-01-31 01:13:00,
2013-01-30 20:18:00,75.1,61.6,29.88,North,0,0.0,0.0,63,0.00,,,0.00,WUHU216HW,2013-01-31 01:18:00,
2013-01-30 20:23:00,74.9,61.8,29.88,North,0,0.0,0.0,64,0.00,,,0.00,WUHU216HW,2013-01-31 01:23:00,
2013-01-30 20:28:00,74.7,61.7,29.88,North,0,0.0,0.0,64,0.00,,,0.00,WUHU216HW,2013-01-31 01:28:00,
2013-01-30 20:33:00,74.7,62.1,29.88,North,0,0.0,0.0,65,0.00,,,0.00,WUHU216HW,2013-01-31 01:33:00,
2013-01-30 20:38:00,74.5,61.9,29.88,North,0,0.0,0.0,65,0.00,,,0.00,WUHU216HW,2013-01-31 01:38:00,
2013-01-30 20:43:00,74.5,62.4,29.88,North,0,0.0,0.0,66,0.00,,,0.00,WUHU216HW,2013-01-31 01:43:00,
2013-01-30 20:48:00,74.3,62.2,29.88,North,0,0.0,0.0,66,0.00,,,0.00,WUHU216HW,2013-01-31 01:48:00,
2013-01-30 20:53:00,74.2,62.1,29.88,North,0,0.0,0.0,66,0.00,,,0.00,WUHU216HW,2013-01-31 01:53:00,
2013-01-30 20:58:00,74.2,62.1,29.88,North,0,0.0,0.0,66,0.00,,,0.00,WUHU216HW,2013-01-31 01:58:00,
2013-01-30 21:03:00,74.0,62.4,29.88,North,0,0.0,0.0,67,0.00,,,0.00,WUHU216HW,2013-01-31 02:03:00,
2013-01-30 21:08:00,74.0,62.4,29.88,North,0,0.0,0.0,67,0.00,,,0.00,WUHU216HW,2013-01-31 02:08:00,
2013-01-30 21:13:00,73.8,62.2,29.88,North,0,0.0,0.0,67,0.00,,,0.00,WUHU216HW,2013-01-31 02:13:00,
2013-01-30 21:18:00,73.8,62.2,29.88,North,0,0.0,0.0,67,0.00,,,0.00,WUHU216HW,2013-01-31 02:18:00,
2013-01-30 21:23:00,73.6,62.5,29.88,North,0,0.0,0.0,68,0.00,,,0.00,WUHU216HW,2013-01-31 02:23:00,
2013-01-30 21:28:00,73.6,62.5,29.89,North,0,0.0,0.0,68,0.00,,,0.00,WUHU216HW,2013-01-31 02:28:00,
2013-01-30 21:33:00,73.4,62.3,29.89,North,0,0.0,0.0,68,0.00,,,0.00,WUHU216HW,2013-01-31 02:33:00,
2013-01-30 21:38:00,73.4,62.7,29.89,North,0,0.0,0.0,69,0.00,,,0.00,WUHU216HW,2013-01-31 02:38:00,
2013-01-30 21:43:00,73.4,62.7,29.88,North,0,0.0,0.0,69,0.00,,,0.00,WUHU216HW,2013-01-31 02:43:00,
2013-01-30 21:48:00,73.4,62.7,29.89,North,0,0.0,0.0,69,0.00,,,0.00,WUHU216HW,2013-01-31 02:48:00,
2013-01-30 21:53:00,73.3,62.6,29.88,North,0,0.0,0.0,69,0.00,,,0.00,WUHU216HW,2013-01-31 02:53:00,
2013-01-30 21:58:00,73.1,62.4,29.88,North,0,0.0,0.0,69,0.00,,,0.00,WUHU216HW,2013-01-31 02:58:00,
2013-01-30 22:03:00,73.1,62.8,29.88,North,0,0.0,0.0,70,0.00,,,0.00,WUHU216HW,2013-01-31 03:03:00,
2013-01-30 22:08:00,73.1,62.8,29.88,North,0,0.0,0.0,70,0.00,,,0.00,WUHU216HW,2013-01-31 03:08:00,
2013-01-30 22:13:00,72.9,62.6,29.88,North,0,0.0,0.0,70,0.00,,,0.00,WUHU216HW,2013-01-31 03:13:00,
2013-01-30 22:18:00,72.9,63.0,29.88,North,0,0.0,0.0,71,0.00,,,0.00,WUHU216HW,2013-01-31 03:18:00,
2013-01-30 22:23:00,72.7,62.8,29.87,North,0,0.0,0.0,71,0.00,,,0.00,WUHU216HW,2013-01-31 03:23:00,
2013-01-30 22:28:00,72.7,62.8,29.87,North,0,0.0,0.0,71,0.00,,,0.00,WUHU216HW,2013-01-31 03:28:00,
2013-01-30 22:33:00,72.5,62.6,29.88,North,0,0.0,0.0,71,0.00,,,0.00,WUHU216HW,2013-01-31 03:33:00,
2013-01-30 22:38:00,72.5,63.0,29.87,North,0,0.0,0.0,72,0.00,,,0.00,WUHU216HW,2013-01-31 03:38:00,
2013-01-30 22:43:00,72.5,63.0,29.87,North,0,0.0,0.0,72,0.00,,,0.00,WUHU216HW,2013-01-31 03:43:00,
2013-01-30 22:48:00,72.4,62.8,29.88,North,0,0.0,0.0,72,0.00,,,0.00,WUHU216HW,2013-01-31 03:48:00,
2013-01-30 22:53:00,72.4,62.8,29.88,North,0,0.0,0.0,72,0.00,,,0.00,WUHU216HW,2013-01-31 03:53:00,
2013-01-30 22:58:00,72.4,62.8,29.88,North,0,0.0,0.0,72,0.00,,,0.00,WUHU216HW,2013-01-31 03:58:00,
2013-01-30 23:03:00,72.4,63.3,29.88,North,0,0.0,0.0,73,0.00,,,0.00,WUHU216HW,2013-01-31 04:03:00,
2013-01-30 23:08:00,72.4,63.3,29.88,North,0,0.0,0.0,73,0.00,,,0.00,WUHU216HW,2013-01-31 04:08:00,
2013-01-30 23:13:00,72.2,63.1,29.88,North,0,0.0,0.0,73,0.00,,,0.00,WUHU216HW,2013-01-31 04:13:00,
2013-01-30 23:18:00,72.2,63.1,29.88,North,0,0.0,0.0,73,0.00,,,0.00,WUHU216HW,2013-01-31 04:18:00,
2013-01-30 23:23:00,72.0,63.3,29.88,North,0,0.0,0.0,74,0.00,,,0.00,WUHU216HW,2013-01-31 04:23:00,
2013-01-30 23:28:00,72.0,63.3,29.88,North,0,0.0,0.0,74,0.00,,,0.00,WUHU216HW,2013-01-31 04:28:00,
2013-01-30 23:33:00,72.0,62.9,29.88,North,0,0.0,0.0,73,0.00,,,0.00,WUHU216HW,2013-01-31 04:33:00,
2013-01-30 23:38:00,72.0,62.9,29.88,North,0,0.0,0.0,73,0.00,,,0.00,WUHU216HW,2013-01-31 04:38:00,
2013-01-30 23:43:00,71.8,63.1,29.87,North,0,0.0,0.0,74,0.00,,,0.00,WUHU216HW,2013-01-31 04:43:00,
2013-01-30 23:48:00,71.8,63.1,29.88,North,0,0.0,0.0,74,0.00,,,0.00,WUHU216HW,2013-01-31 04:48:00,
2013-01-30 23:53:00,71.8,63.1,29.88,North,0,0.0,0.0,74,0.00,,,0.00,WUHU216HW,2013-01-31 04:53:00,
2013-01-30 23:58:00,71.8,63.1,29.88,North,0,0.0,0.0,74,0.00,,,0.00,WUHU216HW,2013-01-31 04:58:00,